Time;durP1;ratioP1;P1;durP2;ratioP2;P2;SDS_P1;SDS_P2;PMS_P1;PMS_P2;Temp;Humidity;BMP_temperature;BMP_pressure;BME280_temperature;BME280_humidity;BME280_pressure;Samples;Min_cycle;Max_cycle;Signal;HPM_P1;HPM_P2
2023/08/10 00:01:02;;;;;;;2.67;1.42;;;17.40;84.00;;;;;;5137257;28;20031;-78
2023/08/10 00:03:28;;;;;;;3.47;1.90;;;17.40;83.90;;;;;;5137313;28;20112;-78
2023/08/10 00:05:54;;;;;;;4.55;1.90;;;17.40;83.80;;;;;;5119112;28;20115;-78
2023/08/10 00:08:19;;;;;;;4.15;1.73;;;17.40;83.70;;;;;;5119116;28;20053;-78
2023/08/10 00:10:49;;;;;;;5.70;1.88;;;17.40;83.90;;;;;;5137148;28;20034;-78
2023/08/10 00:13:15;;;;;;;2.88;1.70;;;17.30;84.30;;;;;;5119004;28;20050;-78
2023/08/10 00:15:40;;;;;;;4.40;1.70;;;17.30;84.60;;;;;;5118921;28;20023;-78
2023/08/10 00:18:07;;;;;;;4.50;1.70;;;17.30;84.90;;;;;;5136978;28;20031;-78
2023/08/10 00:20:32;;;;;;;5.25;1.75;;;17.30;85.00;;;;;;5136934;28;20470;-78
2023/08/10 00:22:58;;;;;;;4.40;1.70;;;17.30;84.90;;;;;;5101885;28;20095;-78
2023/08/10 00:25:23;;;;;;;5.45;1.92;;;17.30;85.00;;;;;;5118712;28;20122;-78
2023/08/10 00:27:49;;;;;;;4.03;1.85;;;17.30;85.00;;;;;;5101740;28;20028;-78
2023/08/10 00:30:15;;;;;;;5.22;2.30;;;17.40;85.00;;;;;;5136764;28;20027;-78
2023/08/10 00:32:41;;;;;;;3.85;2.08;;;17.40;84.70;;;;;;5136724;28;20087;-78
2023/08/10 00:35:07;;;;;;;9.35;2.63;;;17.40;84.50;;;;;;5136574;28;20035;-78
2023/08/10 00:37:33;;;;;;;4.55;2.17;;;17.40;84.40;;;;;;5118883;28;20024;-78
2023/08/10 00:39:58;;;;;;;3.45;2.33;;;17.50;84.30;;;;;;5136578;28;20125;-78
2023/08/10 00:42:24;;;;;;;5.20;2.40;;;17.50;84.30;;;;;;5118653;28;20053;-78
2023/08/10 00:44:50;;;;;;;5.05;2.33;;;17.50;84.40;;;;;;5118488;28;20089;-78
2023/08/10 00:47:15;;;;;;;6.13;2.67;;;17.50;84.40;;;;;;5118367;28;20050;-78
2023/08/10 00:49:41;;;;;;;3.72;2.13;;;17.50;84.30;;;;;;5136383;28;20023;-78
2023/08/10 00:52:07;;;;;;;5.70;2.20;;;17.50;84.20;;;;;;5136339;28;20035;-78
2023/08/10 00:54:33;;;;;;;3.25;2.00;;;17.50;84.30;;;;;;5118470;28;20034;-78
2023/08/10 00:56:59;;;;;;;4.95;2.40;;;17.50;84.30;;;;;;5136256;28;20030;-78
2023/08/10 00:59:27;;;;;;;7.50;2.50;;;17.50;84.30;;;;;;5136333;28;20027;-78
2023/08/10 01:01:53;;;;;;;5.65;2.53;;;17.60;84.40;;;;;;5117993;28;20099;-78
2023/08/10 01:04:18;;;;;;;5.65;2.55;;;17.60;84.30;;;;;;5101186;28;20019;-78
2023/08/10 01:06:55;;;;;;;4.60;1.90;;;17.60;84.20;;;;;;5135958;28;20118;-78
2023/08/10 01:09:36;;;;;;;4.20;2.28;;;17.60;84.40;;;;;;5135847;28;20019;-78
2023/08/10 01:12:13;;;;;;;3.83;2.35;;;17.60;84.40;;;;;;5135399;28;20027;-78
2023/08/10 01:14:47;;;;;;;5.38;2.15;;;17.50;84.70;;;;;;5117863;28;20015;-78
2023/08/10 01:17:19;;;;;;;4.30;2.05;;;17.50;84.80;;;;;;5117847;28;20023;-78
2023/08/10 01:19:48;;;;;;;5.60;2.55;;;17.50;85.00;;;;;;5135858;28;20024;-78
2023/08/10 01:22:13;;;;;;;3.63;2.08;;;17.50;85.20;;;;;;5135756;28;20016;-78
2023/08/10 01:24:43;;;;;;;3.88;2.10;;;17.40;85.40;;;;;;5135776;28;20027;-78
2023/08/10 01:27:12;;;;;;;5.43;2.35;;;17.30;85.60;;;;;;5117861;28;20030;-78
2023/08/10 01:29:38;;;;;;;4.95;2.45;;;17.30;86.20;;;;;;5135606;28;20026;-78
2023/08/10 01:32:04;;;;;;;5.13;2.42;;;17.30;86.40;;;;;;5117503;28;20050;-78
2023/08/10 01:34:30;;;;;;;4.97;2.45;;;17.30;86.40;;;;;;5135436;28;20081;-78
2023/08/10 01:36:55;;;;;;;4.53;2.30;;;17.30;86.90;;;;;;5135449;28;20019;-78
2023/08/10 01:39:21;;;;;;;4.43;2.00;;;17.30;87.20;;;;;;5117534;28;20042;-78
2023/08/10 01:41:47;;;;;;;4.68;2.33;;;17.30;87.40;;;;;;5117398;28;20088;-78
2023/08/10 01:44:12;;;;;;;3.65;2.22;;;17.30;87.50;;;;;;5100398;28;20027;-78
2023/08/10 01:46:40;;;;;;;3.95;2.40;;;17.30;88.00;;;;;;5116968;28;20410;-78
2023/08/10 01:49:08;;;;;;;4.63;2.75;;;17.30;87.70;;;;;;5135273;28;20022;-78
2023/08/10 01:51:37;;;;;;;4.97;2.63;;;17.40;87.60;;;;;;5135160;28;20024;-78
2023/08/10 01:54:06;;;;;;;5.85;2.70;;;17.40;87.20;;;;;;5135113;28;20026;-78
2023/08/10 01:56:32;;;;;;;5.93;2.63;;;17.40;87.20;;;;;;5116970;28;20123;-78
2023/08/10 01:58:58;;;;;;;6.57;2.70;;;17.30;87.50;;;;;;5135167;28;20040;-78
2023/08/10 02:01:23;;;;;;;3.88;2.30;;;17.30;87.60;;;;;;5100237;28;20043;-78
2023/08/10 02:03:49;;;;;;;6.13;2.85;;;17.30;87.70;;;;;;5134921;28;20035;-78
2023/08/10 02:06:14;;;;;;;4.65;2.58;;;17.40;87.90;;;;;;5116798;28;20028;-78
2023/08/10 02:08:40;;;;;;;5.85;2.60;;;17.30;87.90;;;;;;5134825;28;20038;-78
2023/08/10 02:11:06;;;;;;;5.72;2.13;;;17.30;88.00;;;;;;5134797;28;20027;-78
2023/08/10 02:13:31;;;;;;;4.35;2.75;;;17.40;88.00;;;;;;5116678;28;20065;-78
2023/08/10 02:15:57;;;;;;;4.15;2.30;;;17.40;88.00;;;;;;5099694;28;20032;-78
2023/08/10 02:18:22;;;;;;;4.72;2.30;;;17.30;87.90;;;;;;5116813;28;20031;-78
2023/08/10 02:20:48;;;;;;;3.50;2.45;;;17.30;88.10;;;;;;5116625;28;20035;-78
2023/08/10 02:23:14;;;;;;;7.15;2.70;;;17.30;88.40;;;;;;5133861;28;20058;-78
2023/08/10 02:25:39;;;;;;;6.30;2.88;;;17.30;88.50;;;;;;5116558;28;20088;-78
2023/08/10 02:28:05;;;;;;;5.93;2.80;;;17.10;88.80;;;;;;5134455;28;20035;-78
2023/08/10 02:30:30;;;;;;;4.90;2.95;;;17.10;89.00;;;;;;5134444;28;20034;-78
2023/08/10 02:32:56;;;;;;;4.68;2.70;;;17.20;89.80;;;;;;5134509;28;20463;-78
2023/08/10 02:35:22;;;;;;;6.63;2.65;;;17.20;88.90;;;;;;5099441;28;20079;-78
2023/08/10 02:37:48;;;;;;;4.25;2.70;;;17.20;88.90;;;;;;5134347;28;20034;-78
2023/08/10 02:40:15;;;;;;;4.53;2.50;;;17.10;89.10;;;;;;5116446;28;20032;-78
2023/08/10 02:42:42;;;;;;;3.88;2.47;;;17.00;89.40;;;;;;5134247;28;20036;-78
2023/08/10 02:45:08;;;;;;;4.50;2.50;;;17.00;89.70;;;;;;5116118;28;20016;-78
2023/08/10 02:47:34;;;;;;;6.38;3.30;;;17.00;90.00;;;;;;5115964;28;20192;-78
2023/08/10 02:50:01;;;;;;;5.05;2.47;;;17.10;89.70;;;;;;5116248;28;20032;-78
2023/08/10 02:52:27;;;;;;;4.05;2.60;;;17.00;89.70;;;;;;5116093;28;20026;-78
2023/08/10 02:54:52;;;;;;;4.82;2.40;;;16.90;89.90;;;;;;5116142;28;20031;-78
2023/08/10 02:57:18;;;;;;;7.63;2.63;;;16.90;90.20;;;;;;5115997;28;20059;-78
2023/08/10 02:59:44;;;;;;;4.78;2.55;;;16.90;90.30;;;;;;5134042;28;20015;-78
2023/08/10 03:02:09;;;;;;;7.53;2.60;;;16.90;90.30;;;;;;5134153;28;20027;-78
2023/08/10 03:04:35;;;;;;;5.45;2.40;;;17.00;90.40;;;;;;5099214;28;20031;-78
2023/08/10 03:07:01;;;;;;;5.03;2.80;;;16.90;90.40;;;;;;5133851;28;20031;-78
2023/08/10 03:09:27;;;;;;;6.15;3.20;;;16.90;90.50;;;;;;5115955;28;20028;-78
2023/08/10 03:11:53;;;;;;;4.57;2.75;;;16.90;90.40;;;;;;5099099;28;20019;-78
2023/08/10 03:14:18;;;;;;;3.55;2.45;;;16.90;90.30;;;;;;5115981;28;20106;-78
2023/08/10 03:16:44;;;;;;;6.00;2.72;;;16.90;90.30;;;;;;5133857;28;20031;-78
2023/08/10 03:19:10;;;;;;;5.88;2.45;;;16.90;90.30;;;;;;5133861;28;20031;-78
2023/08/10 03:21:35;;;;;;;5.13;2.33;;;16.90;90.20;;;;;;5133817;28;20476;-78
2023/08/10 03:24:02;;;;;;;8.80;3.10;;;16.90;90.10;;;;;;5133755;28;20032;-78
2023/08/10 03:26:27;;;;;;;9.23;2.80;;;16.80;90.10;;;;;;5115761;28;20045;-78
2023/08/10 03:28:53;;;;;;;4.32;2.67;;;16.80;90.10;;;;;;5115821;28;20020;-78
2023/08/10 03:31:19;;;;;;;5.35;2.80;;;16.70;90.20;;;;;;5133722;28;20129;-78
2023/08/10 03:33:44;;;;;;;6.75;2.78;;;16.70;90.30;;;;;;5133630;28;20023;-78
2023/08/10 03:36:10;;;;;;;8.48;3.40;;;16.70;90.30;;;;;;5137801;28;20042;-78
2023/08/10 03:38:36;;;;;;;8.13;3.25;;;16.70;90.10;;;;;;5137765;28;20032;-78
2023/08/10 03:41:01;;;;;;;4.93;2.70;;;16.70;90.00;;;;;;5137731;28;20035;-78
2023/08/10 03:43:27;;;;;;;8.05;2.92;;;16.60;90.00;;;;;;5137698;28;20070;-78
2023/08/10 03:45:53;;;;;;;6.30;2.88;;;16.50;90.00;;;;;;5102505;28;20023;-78
2023/08/10 03:48:19;;;;;;;5.22;3.28;;;16.30;90.10;;;;;;5119487;28;20048;-78
2023/08/10 03:50:45;;;;;;;5.40;3.38;;;16.30;90.30;;;;;;5137555;28;20024;-78
2023/08/10 03:53:10;;;;;;;9.02;3.33;;;16.20;90.50;;;;;;5137429;28;20047;-78
2023/08/10 03:55:36;;;;;;;7.75;3.53;;;16.20;90.60;;;;;;5137475;28;20052;-78
2023/08/10 03:58:02;;;;;;;6.55;3.00;;;16.30;90.80;;;;;;5102361;28;20034;-78
2023/08/10 04:00:28;;;;;;;5.85;3.35;;;16.40;90.80;;;;;;5137364;28;20024;-78
2023/08/10 04:02:53;;;;;;;6.30;3.05;;;16.40;90.80;;;;;;5119264;28;20103;-78
2023/08/10 04:05:19;;;;;;;6.80;3.55;;;16.50;90.90;;;;;;5137181;28;20083;-78
2023/08/10 04:07:45;;;;;;;5.22;3.03;;;16.50;90.90;;;;;;5119300;28;20028;-78
2023/08/10 04:10:11;;;;;;;10.57;3.70;;;16.60;90.90;;;;;;5137136;28;20027;-78
2023/08/10 04:12:37;;;;;;;9.20;4.15;;;16.60;90.80;;;;;;5119054;28;20028;-78
2023/08/10 04:15:08;;;;;;;7.63;3.58;;;16.60;90.60;;;;;;5137103;28;20032;-78
2023/08/10 04:17:34;;;;;;;6.07;3.55;;;16.60;90.70;;;;;;5102398;28;20122;-78
2023/08/10 04:20:00;;;;;;;5.68;3.50;;;16.60;90.70;;;;;;5136980;28;20063;-78
2023/08/10 04:22:26;;;;;;;8.27;4.07;;;16.60;90.80;;;;;;5119047;28;20035;-78
2023/08/10 04:24:52;;;;;;;8.05;3.40;;;16.60;90.80;;;;;;5118716;28;20036;-78
2023/08/10 04:27:18;;;;;;;6.47;3.58;;;16.60;90.70;;;;;;5136848;28;20056;-78
2023/08/10 04:29:44;;;;;;;6.32;3.65;;;16.60;90.70;;;;;;5136793;28;20028;-78
2023/08/10 04:32:11;;;;;;;5.18;3.55;;;16.50;90.60;;;;;;5118717;28;20024;-78
2023/08/10 04:34:37;;;;;;;7.32;3.80;;;16.50;90.70;;;;;;5136596;28;20047;-78
2023/08/10 04:37:03;;;;;;;5.65;3.53;;;16.50;90.80;;;;;;5136647;28;20032;-78
2023/08/10 04:39:29;;;;;;;6.97;3.75;;;16.50;91.00;;;;;;5136616;28;20020;-78
2023/08/10 04:41:54;;;;;;;5.03;3.28;;;16.50;91.10;;;;;;5136563;28;20048;-78
2023/08/10 04:44:20;;;;;;;4.72;3.40;;;16.50;91.10;;;;;;5118604;28;20043;-78
2023/08/10 04:46:46;;;;;;;7.50;4.15;;;16.60;91.20;;;;;;5117139;28;20050;-78
2023/08/10 04:49:11;;;;;;;6.97;3.95;;;16.50;91.10;;;;;;5136462;28;20032;-79
2023/08/10 04:51:37;;;;;;;7.75;3.92;;;16.50;91.10;;;;;;5136613;28;20027;-79
2023/08/10 04:54:03;;;;;;;6.03;3.85;;;16.50;91.30;;;;;;5136373;28;20391;-79
2023/08/10 04:56:28;;;;;;;6.85;4.63;;;16.40;91.40;;;;;;5118457;28;20038;-79
2023/08/10 04:58:54;;;;;;;7.78;4.80;;;16.40;91.50;;;;;;5118102;28;20024;-79
2023/08/10 05:01:20;;;;;;;6.30;4.78;;;16.40;91.50;;;;;;5136221;28;20035;-78
2023/08/10 05:03:46;;;;;;;10.52;4.63;;;16.50;91.60;;;;;;5136127;28;20035;-78
2023/08/10 05:06:12;;;;;;;5.85;4.53;;;16.50;91.60;;;;;;5117912;28;20058;-78
2023/08/10 05:08:38;;;;;;;6.63;4.32;;;16.60;91.50;;;;;;5118009;28;20024;-78
2023/08/10 05:11:04;;;;;;;7.68;4.68;;;16.60;91.40;;;;;;5136234;28;20031;-78
2023/08/10 05:13:30;;;;;;;9.30;4.90;;;16.60;91.40;;;;;;5118209;28;20027;-79
2023/08/10 05:15:55;;;;;;;6.50;4.30;;;16.50;91.30;;;;;;5101077;28;20035;-78
2023/08/10 05:18:22;;;;;;;6.05;4.45;;;16.40;91.40;;;;;;5117969;28;20499;-78
2023/08/10 05:20:49;;;;;;;8.18;4.65;;;16.40;91.50;;;;;;5135829;28;20027;-79
2023/08/10 05:23:15;;;;;;;6.47;4.72;;;16.40;91.60;;;;;;5135804;28;20016;-79
2023/08/10 05:25:40;;;;;;;7.80;4.70;;;16.40;91.70;;;;;;5135629;28;20031;-79
2023/08/10 05:28:06;;;;;;;6.55;4.85;;;16.30;91.80;;;;;;5100646;28;20122;-79
2023/08/10 05:30:31;;;;;;;7.28;5.15;;;16.30;91.80;;;;;;5117717;28;20054;-78
2023/08/10 05:32:57;;;;;;;8.38;5.20;;;16.40;91.80;;;;;;5117571;28;20031;-78
2023/08/10 05:35:23;;;;;;;7.70;5.55;;;16.40;91.70;;;;;;5100536;28;20024;-78
2023/08/10 05:37:48;;;;;;;9.50;6.03;;;16.40;91.60;;;;;;5117553;28;20043;-78
2023/08/10 05:40:14;;;;;;;11.05;6.88;;;16.30;91.60;;;;;;5135440;28;20027;-77
2023/08/10 05:42:42;;;;;;;10.73;6.50;;;16.20;91.70;;;;;;5135354;28;20050;-77
2023/08/10 05:45:09;;;;;;;9.43;7.25;;;16.20;91.70;;;;;;5135267;28;20050;-78
2023/08/10 05:47:35;;;;;;;12.02;7.38;;;16.20;91.80;;;;;;5135109;28;20039;-78
2023/08/10 05:50:02;;;;;;;9.43;7.18;;;16.30;91.90;;;;;;5117390;28;20030;-78
2023/08/10 05:52:28;;;;;;;11.93;7.55;;;16.30;91.90;;;;;;5117079;28;20020;-78
2023/08/10 05:54:53;;;;;;;11.65;7.95;;;16.30;92.10;;;;;;5116987;28;20039;-78
2023/08/10 05:57:19;;;;;;;9.77;8.13;;;16.30;92.20;;;;;;5134936;28;20045;-78
2023/08/10 05:59:45;;;;;;;13.48;9.07;;;16.30;92.20;;;;;;5100246;28;20024;-78
2023/08/10 06:02:11;;;;;;;18.95;9.73;;;16.30;92.40;;;;;;5117195;28;20031;-79
2023/08/10 06:04:36;;;;;;;14.75;9.70;;;16.30;92.60;;;;;;5117055;28;20028;-78
2023/08/10 06:07:02;;;;;;;15.02;10.43;;;16.20;92.80;;;;;;5100104;28;20028;-78
2023/08/10 06:09:28;;;;;;;13.05;11.07;;;16.20;93.20;;;;;;5116799;28;20046;-78
2023/08/10 06:11:55;;;;;;;15.00;11.43;;;16.20;93.30;;;;;;5116781;28;20027;-78
2023/08/10 06:14:20;;;;;;;15.68;11.32;;;16.20;93.50;;;;;;5134751;28;20079;-78
2023/08/10 06:16:46;;;;;;;16.42;12.75;;;16.30;93.70;;;;;;5134748;28;20027;-78
2023/08/10 06:19:12;;;;;;;16.48;12.90;;;16.40;93.60;;;;;;5116734;28;20016;-78
2023/08/10 06:21:38;;;;;;;14.55;12.60;;;16.40;93.60;;;;;;5116748;28;20083;-78
2023/08/10 06:24:06;;;;;;;14.68;12.38;;;16.40;93.60;;;;;;5116703;28;20079;-78
2023/08/10 06:26:33;;;;;;;14.25;9.98;;;16.40;93.50;;;;;;5134471;28;20023;-78
2023/08/10 06:28:59;;;;;;;11.88;9.15;;;16.50;93.50;;;;;;5134484;28;20026;-79
2023/08/10 06:31:25;;;;;;;15.07;9.15;;;16.50;93.30;;;;;;5116638;28;20023;-78
2023/08/10 06:33:50;;;;;;;13.95;8.05;;;16.60;93.00;;;;;;5116447;28;20023;-78
2023/08/10 06:36:16;;;;;;;11.32;7.75;;;16.60;92.80;;;;;;5134388;28;20031;-79
2023/08/10 06:38:42;;;;;;;12.07;8.50;;;16.70;92.90;;;;;;5116338;28;20031;-78
2023/08/10 06:41:07;;;;;;;13.13;8.60;;;16.70;92.80;;;;;;5116205;28;20035;-77
2023/08/10 06:43:33;;;;;;;10.73;7.25;;;16.80;92.80;;;;;;5116378;28;20031;-77
2023/08/10 06:45:59;;;;;;;10.77;8.38;;;16.80;92.50;;;;;;5134116;28;20030;-78
2023/08/10 06:48:25;;;;;;;11.18;8.85;;;16.80;92.50;;;;;;5116153;28;20055;-77
2023/08/10 06:50:51;;;;;;;9.32;7.15;;;16.90;92.50;;;;;;5134152;28;20031;-78
2023/08/10 06:53:16;;;;;;;11.80;6.20;;;17.00;92.30;;;;;;5116171;28;20031;-78
2023/08/10 06:55:42;;;;;;;11.32;6.72;;;17.00;92.00;;;;;;5134252;28;20088;-77
2023/08/10 06:58:08;;;;;;;8.40;5.82;;;17.10;92.10;;;;;;5116038;28;20019;-78
2023/08/10 07:00:35;;;;;;;10.27;6.68;;;17.20;92.10;;;;;;5116203;28;20023;-78
2023/08/10 07:03:02;;;;;;;10.80;5.78;;;17.30;92.00;;;;;;5134022;28;20047;-77
2023/08/10 07:05:28;;;;;;;7.90;5.50;;;17.40;91.60;;;;;;5133908;28;20046;-78
2023/08/10 07:07:55;;;;;;;7.95;4.97;;;17.30;91.10;;;;;;5133930;28;20019;-77
2023/08/10 07:10:21;;;;;;;10.27;4.85;;;17.40;91.30;;;;;;5133407;28;20083;-77
2023/08/10 07:12:46;;;;;;;8.25;4.80;;;17.40;91.20;;;;;;5115903;28;20020;-77
2023/08/10 07:15:12;;;;;;;8.75;4.65;;;17.40;90.90;;;;;;5133850;28;20079;-77
2023/08/10 07:17:38;;;;;;;6.80;4.55;;;17.40;90.80;;;;;;5133850;28;20095;-77
2023/08/10 07:20:06;;;;;;;6.35;4.10;;;17.50;90.50;;;;;;5099018;28;20035;-78
2023/08/10 07:22:32;;;;;;;6.40;3.75;;;17.60;90.30;;;;;;5133841;28;20051;-77
2023/08/10 07:25:03;;;;;;;6.47;4.40;;;17.60;89.00;;;;;;5133713;28;20075;-77
2023/08/10 07:27:30;;;;;;;10.27;4.32;;;17.70;88.70;;;;;;5115759;28;20027;-77
2023/08/10 07:29:56;;;;;;;6.30;4.43;;;17.80;89.60;;;;;;5133743;28;20051;-77
2023/08/10 07:32:22;;;;;;;5.68;3.70;;;17.80;89.60;;;;;;5133728;28;20136;-77
2023/08/10 07:34:48;;;;;;;6.05;4.03;;;17.90;88.30;;;;;;5133640;28;20028;-77
2023/08/10 07:37:14;;;;;;;5.55;3.50;;;17.90;88.20;;;;;;5133701;28;20016;-77
2023/08/10 07:39:40;;;;;;;6.63;4.15;;;18.00;89.00;;;;;;5098781;28;20024;-77
2023/08/10 07:42:06;;;;;;;6.95;3.25;;;18.00;87.30;;;;;;5133679;28;20028;-78
2023/08/10 07:44:32;;;;;;;6.30;3.58;;;18.10;87.30;;;;;;5115776;28;20034;-78
2023/08/10 07:46:58;;;;;;;5.75;3.88;;;18.10;85.40;;;;;;5133253;28;20032;-77
2023/08/10 07:49:24;;;;;;;9.93;3.45;;;18.20;85.50;;;;;;5115617;28;20034;-77
2023/08/10 07:51:50;;;;;;;5.85;2.50;;;18.20;84.10;;;;;;5115569;28;20020;-77
2023/08/10 07:54:15;;;;;;;5.13;2.40;;;18.30;83.50;;;;;;5133523;28;20031;-77
2023/08/10 07:56:42;;;;;;;4.43;2.53;;;18.40;82.30;;;;;;5133491;28;20024;-77
2023/08/10 07:59:08;;;;;;;8.05;3.35;;;18.40;81.70;;;;;;5133507;28;20020;-77
2023/08/10 08:01:33;;;;;;;5.47;2.83;;;18.50;81.60;;;;;;5115397;28;20151;-77
2023/08/10 08:03:59;;;;;;;3.95;2.53;;;18.50;81.50;;;;;;5133536;28;20028;-77
2023/08/10 08:06:24;;;;;;;12.40;3.60;;;18.50;80.50;;;;;;5115289;28;20122;-77
2023/08/10 08:08:50;;;;;;;4.65;2.60;;;18.60;80.20;;;;;;5115473;28;20050;-77
2023/08/10 08:11:16;;;;;;;6.68;2.42;;;18.60;80.70;;;;;;5098425;28;20027;-77
2023/08/10 08:13:42;;;;;;;3.03;1.80;;;18.60;78.90;;;;;;5115308;28;20087;-77
2023/08/10 08:16:08;;;;;;;3.35;1.90;;;18.70;79.20;;;;;;5115300;28;20104;-78
2023/08/10 08:18:49;;;;;;;3.53;2.10;;;18.70;77.10;;;;;;5133307;28;20114;-77
2023/08/10 08:21:19;;;;;;;6.03;1.93;;;18.70;74.90;;;;;;5134110;28;20027;-77
2023/08/10 08:23:46;;;;;;;4.25;2.00;;;18.80;75.60;;;;;;5119000;28;20024;-77
2023/08/10 08:26:14;;;;;;;5.40;2.60;;;18.80;74.80;;;;;;5118703;28;20022;-77
2023/08/10 08:28:40;;;;;;;4.30;2.60;;;18.90;74.40;;;;;;5136855;28;20090;-77
2023/08/10 08:31:06;;;;;;;5.03;2.15;;;19.00;75.80;;;;;;5119098;28;20023;-77
2023/08/10 08:33:33;;;;;;;4.88;3.05;;;19.10;75.00;;;;;;5101778;28;20023;-77
2023/08/10 08:35:59;;;;;;;4.30;2.83;;;19.10;75.50;;;;;;5136706;28;20034;-77
2023/08/10 08:38:25;;;;;;;3.90;2.58;;;19.20;74.60;;;;;;5136675;28;20023;-77
2023/08/10 08:40:53;;;;;;;6.80;3.13;;;19.20;74.80;;;;;;5136616;28;20371;-77
2023/08/10 08:43:18;;;;;;;4.90;2.25;;;19.30;74.40;;;;;;5118662;28;20032;-77
2023/08/10 08:45:44;;;;;;;4.20;2.72;;;19.30;74.50;;;;;;5118362;28;20028;-77
2023/08/10 08:48:14;;;;;;;4.93;2.70;;;19.30;74.10;;;;;;5136301;28;20036;-77
2023/08/10 08:50:42;;;;;;;5.85;1.90;;;19.30;72.50;;;;;;5118512;28;20044;-77
2023/08/10 08:53:08;;;;;;;3.92;2.22;;;19.30;73.10;;;;;;5118295;28;20030;-77
2023/08/10 08:55:34;;;;;;;4.43;2.60;;;19.40;74.30;;;;;;5136487;28;20486;-77
2023/08/10 08:58:00;;;;;;;3.80;2.60;;;19.50;74.00;;;;;;5101340;28;20044;-77
2023/08/10 09:00:26;;;;;;;4.10;2.45;;;19.50;74.60;;;;;;5118140;28;20016;-77
2023/08/10 09:02:52;;;;;;;7.20;3.33;;;19.60;74.30;;;;;;5136211;28;20394;-78
2023/08/10 09:05:18;;;;;;;6.95;3.30;;;19.70;77.30;;;;;;5136090;28;20028;-77
2023/08/10 09:07:44;;;;;;;4.20;3.00;;;19.80;75.20;;;;;;5118038;28;20027;-77
2023/08/10 09:10:10;;;;;;;6.35;3.03;;;19.80;74.00;;;;;;5136114;28;20028;-77
2023/08/10 09:12:37;;;;;;;6.00;2.80;;;19.80;74.50;;;;;;5136031;28;20020;-77
2023/08/10 09:15:11;;;;;;;6.45;2.63;;;19.90;74.60;;;;;;5118167;28;20020;-77
2023/08/10 09:17:48;;;;;;;7.38;4.18;;;19.90;73.70;;;;;;5135972;28;20023;-77
2023/08/10 09:20:28;;;;;;;7.05;2.63;;;19.90;74.70;;;;;;5117864;28;20035;-77
2023/08/10 09:22:56;;;;;;;3.20;2.05;;;20.00;74.50;;;;;;5135832;28;20054;-77
2023/08/10 09:25:22;;;;;;;6.30;2.63;;;20.00;74.40;;;;;;5135663;28;20027;-77
2023/08/10 09:27:49;;;;;;;3.75;2.45;;;20.10;75.00;;;;;;5135711;28;20073;-77
2023/08/10 09:30:16;;;;;;;5.40;2.22;;;20.10;74.60;;;;;;5135647;28;20037;-77
2023/08/10 09:32:42;;;;;;;4.28;2.03;;;20.10;74.10;;;;;;5117035;28;20049;-77
2023/08/10 09:35:13;;;;;;;3.30;2.00;;;20.10;73.90;;;;;;5135455;28;20050;-77
2023/08/10 09:37:39;;;;;;;3.28;1.95;;;20.20;75.80;;;;;;5135535;28;20020;-77
2023/08/10 09:40:06;;;;;;;3.03;2.00;;;20.20;75.50;;;;;;5135446;28;20517;-77
2023/08/10 09:42:33;;;;;;;3.90;1.98;;;20.20;74.00;;;;;;5117327;28;20020;-77
2023/08/10 09:45:03;;;;;;;3.75;2.08;;;20.20;74.00;;;;;;5117269;28;20015;-77
2023/08/10 09:47:37;;;;;;;3.67;2.10;;;20.20;74.70;;;;;;5135209;28;20073;-77
2023/08/10 09:50:14;;;;;;;3.45;1.80;;;20.20;74.70;;;;;;5135238;28;20041;-77
2023/08/10 09:52:41;;;;;;;3.55;1.85;;;20.30;74.20;;;;;;5135244;28;20020;-77
2023/08/10 09:55:08;;;;;;;3.78;1.80;;;20.30;75.00;;;;;;5100351;28;20020;-77
2023/08/10 09:57:40;;;;;;;4.07;1.88;;;20.20;74.90;;;;;;5135087;28;20035;-77
2023/08/10 10:00:13;;;;;;;3.10;1.85;;;20.40;73.90;;;;;;5135271;28;20046;-77
2023/08/10 10:02:39;;;;;;;3.30;1.88;;;20.40;75.50;;;;;;5135239;28;20024;-77
2023/08/10 10:05:06;;;;;;;5.28;2.08;;;20.50;74.80;;;;;;5134879;28;20020;-77
2023/08/10 10:07:32;;;;;;;2.83;1.90;;;20.60;74.10;;;;;;5116867;28;20024;-77
2023/08/10 10:09:59;;;;;;;3.05;1.80;;;20.80;74.40;;;;;;5134867;28;20019;-77
2023/08/10 10:12:26;;;;;;;4.60;2.28;;;21.00;74.90;;;;;;5134842;28;20024;-77
2023/08/10 10:14:52;;;;;;;5.40;2.40;;;21.10;74.10;;;;;;5134794;28;20103;-77
2023/08/10 10:17:19;;;;;;;4.18;2.67;;;21.20;75.10;;;;;;5099784;28;20015;-77
2023/08/10 10:19:48;;;;;;;4.82;2.72;;;21.20;73.90;;;;;;5134602;28;20020;-77
2023/08/10 10:22:17;;;;;;;4.28;2.22;;;21.20;72.00;;;;;;5100346;28;20027;-77
2023/08/10 10:24:44;;;;;;;5.22;2.22;;;21.20;72.10;;;;;;5134576;28;20020;-77
2023/08/10 10:27:13;;;;;;;5.93;2.38;;;21.20;73.40;;;;;;5134495;28;20028;-77
2023/08/10 10:29:51;;;;;;;5.07;2.33;;;21.30;73.90;;;;;;5099592;28;20026;-77
2023/08/10 10:32:21;;;;;;;4.30;2.17;;;21.30;74.20;;;;;;5116475;28;20023;-77
2023/08/10 10:34:51;;;;;;;3.67;2.10;;;21.20;73.00;;;;;;5116493;28;20020;-77
2023/08/10 10:37:37;;;;;;;3.42;2.33;;;21.20;73.10;;;;;;5116326;28;20045;-77
2023/08/10 10:40:15;;;;;;;5.97;2.92;;;21.10;73.00;;;;;;5116455;28;20127;-77
2023/08/10 10:43:11;;;;;;;4.65;2.60;;;21.10;73.70;;;;;;5134461;28;20092;-77
2023/08/10 10:45:38;;;;;;;8.48;2.90;;;21.10;74.70;;;;;;5115622;28;20088;-77
2023/08/10 10:48:05;;;;;;;6.30;3.22;;;21.10;74.90;;;;;;5134035;28;20071;-77
2023/08/10 10:50:33;;;;;;;5.97;3.15;;;21.20;74.80;;;;;;5134189;28;20020;-77
2023/08/10 10:53:04;;;;;;;4.75;2.90;;;21.20;74.30;;;;;;5134125;28;20049;-77
2023/08/10 10:55:39;;;;;;;4.05;2.60;;;21.30;74.10;;;;;;5134343;28;20106;-77
2023/08/10 10:58:07;;;;;;;6.55;2.95;;;21.30;74.30;;;;;;5116134;28;20027;-77
2023/08/10 11:00:34;;;;;;;6.05;2.92;;;21.30;74.50;;;;;;5134078;28;20035;-77
2023/08/10 11:03:02;;;;;;;4.28;2.63;;;21.40;75.30;;;;;;5134019;28;20028;-77
2023/08/10 11:05:28;;;;;;;6.82;3.13;;;21.30;75.10;;;;;;5133911;28;20027;-77
2023/08/10 11:07:55;;;;;;;7.40;2.92;;;21.30;74.80;;;;;;5116015;28;20520;-77
2023/08/10 11:10:22;;;;;;;5.68;2.85;;;21.30;75.30;;;;;;5133993;28;20020;-77
2023/08/10 11:12:49;;;;;;;8.85;3.35;;;21.20;75.10;;;;;;5133934;28;20106;-77
2023/08/10 11:15:16;;;;;;;5.50;3.00;;;21.30;74.80;;;;;;5134026;28;20049;-77
2023/08/10 11:17:50;;;;;;;7.30;3.45;;;21.40;75.20;;;;;;5133841;28;20031;-77
2023/08/10 11:20:17;;;;;;;7.03;3.10;;;21.50;76.50;;;;;;5133918;28;20432;-77
2023/08/10 11:22:43;;;;;;;5.97;3.30;;;21.50;76.50;;;;;;5115956;28;20030;-77
2023/08/10 11:25:11;;;;;;;8.63;3.80;;;21.60;75.70;;;;;;5133726;28;20027;-77
2023/08/10 11:27:42;;;;;;;7.07;3.17;;;21.60;75.90;;;;;;5133776;28;20067;-77
2023/08/10 11:30:09;;;;;;;6.05;3.20;;;21.70;75.90;;;;;;5133819;28;20037;-77
2023/08/10 11:32:43;;;;;;;5.65;3.60;;;21.70;74.90;;;;;;5133771;28;20026;-77
2023/08/10 11:35:10;;;;;;;8.45;3.75;;;21.70;75.30;;;;;;5115633;28;20019;-77
2023/08/10 11:37:41;;;;;;;7.03;3.83;;;21.60;75.40;;;;;;5115699;28;20366;-77
2023/08/10 11:40:11;;;;;;;10.15;3.70;;;21.60;75.80;;;;;;5115745;28;20031;-77
2023/08/10 11:42:41;;;;;;;6.70;3.55;;;21.60;75.30;;;;;;5099387;28;20042;-77
2023/08/10 11:45:11;;;;;;;5.05;3.20;;;21.60;74.60;;;;;;5115548;28;20376;-77
2023/08/10 11:47:54;;;;;;;5.47;3.28;;;21.70;74.70;;;;;;5133459;28;20107;-77
2023/08/10 11:50:21;;;;;;;6.32;3.60;;;21.70;74.20;;;;;;5133464;28;20039;-78
2023/08/10 11:52:49;;;;;;;10.15;4.43;;;21.90;74.10;;;;;;5133523;28;20026;-77
2023/08/10 11:55:18;;;;;;;8.32;3.30;;;21.90;73.70;;;;;;5099775;28;20084;-77
2023/08/10 11:57:46;;;;;;;8.52;4.15;;;21.90;75.10;;;;;;5137451;28;20032;-78
2023/08/10 12:00:26;;;;;;;6.63;3.88;;;22.10;75.70;;;;;;5137409;28;20087;-78
2023/08/10 12:03:08;;;;;;;6.70;4.00;;;22.20;73.20;;;;;;5137356;28;20036;-78
2023/08/10 12:05:37;;;;;;;6.00;3.90;;;22.30;74.20;;;;;;5137310;28;20024;-78
2023/08/10 12:08:17;;;;;;;6.40;3.85;;;22.20;74.10;;;;;;5137250;28;20031;-78
2023/08/10 12:10:47;;;;;;;6.90;3.50;;;22.20;75.30;;;;;;5137262;28;20019;-78
2023/08/10 12:13:15;;;;;;;5.35;3.28;;;22.30;75.10;;;;;;5137233;28;20016;-78
2023/08/10 12:15:48;;;;;;;5.70;3.70;;;22.50;73.10;;;;;;5137126;28;20024;-78
2023/08/10 12:18:16;;;;;;;6.10;3.47;;;22.50;74.10;;;;;;5119321;28;20051;-78
2023/08/10 12:20:46;;;;;;;5.53;3.10;;;22.60;72.70;;;;;;5119048;28;20048;-77
2023/08/10 12:23:13;;;;;;;4.43;3.55;;;22.60;71.60;;;;;;5137005;28;20042;-78
2023/08/10 12:25:39;;;;;;;7.72;4.13;;;22.70;73.30;;;;;;5136876;28;20031;-78
2023/08/10 12:28:07;;;;;;;5.97;3.13;;;22.70;70.80;;;;;;5136839;28;20054;-78
2023/08/10 12:30:34;;;;;;;5.45;3.15;;;22.70;69.60;;;;;;5136831;28;20019;-78
2023/08/10 12:33:00;;;;;;;5.82;3.33;;;22.80;70.20;;;;;;5118812;28;20027;-78
2023/08/10 12:35:26;;;;;;;5.47;3.42;;;22.90;70.80;;;;;;5136670;28;20035;-78
2023/08/10 12:37:52;;;;;;;6.10;3.30;;;22.90;69.80;;;;;;5136709;28;20028;-77
2023/08/10 12:40:18;;;;;;;5.72;3.47;;;23.10;70.10;;;;;;5118551;28;20024;-77
2023/08/10 12:42:44;;;;;;;5.07;3.25;;;23.10;70.30;;;;;;5118665;28;20042;-78
2023/08/10 12:45:11;;;;;;;5.53;3.70;;;23.30;70.40;;;;;;5136492;28;20080;-78